sensor_id;sensor_type;location;lat;lon;timestamp;temperature;humidity
25250;DHT22;13201;51.148;13.738;2023-05-21T00:00:49;13.80;99.90
25250;DHT22;13201;51.148;13.738;2023-05-21T00:03:16;14.00;99.90
25250;DHT22;13201;51.148;13.738;2023-05-21T00:05:42;13.90;99.90
25250;DHT22;13201;51.148;13.738;2023-05-21T00:08:11;14.00;99.90
25250;DHT22;13201;51.148;13.738;2023-05-21T00:10:38;14.00;99.90
25250;DHT22;13201;51.148;13.738;2023-05-21T00:13:04;14.00;99.90
25250;DHT22;13201;51.148;13.738;2023-05-21T00:15:29;14.10;99.90
25250;DHT22;13201;51.148;13.738;2023-05-21T00:17:55;14.20;99.90
25250;DHT22;13201;51.148;13.738;2023-05-21T00:20:21;14.10;99.90
25250;DHT22;13201;51.148;13.738;2023-05-21T00:22:47;14.00;99.90
25250;DHT22;13201;51.148;13.738;2023-05-21T00:25:13;13.90;99.90
25250;DHT22;13201;51.148;13.738;2023-05-21T00:27:39;13.90;99.90
25250;DHT22;13201;51.148;13.738;2023-05-21T00:30:05;13.80;99.90
25250;DHT22;13201;51.148;13.738;2023-05-21T00:32:31;13.80;99.90
25250;DHT22;13201;51.148;13.738;2023-05-21T00:34:56;13.80;99.90
25250;DHT22;13201;51.148;13.738;2023-05-21T00:37:22;13.80;99.90
25250;DHT22;13201;51.148;13.738;2023-05-21T00:39:49;13.50;99.90
25250;DHT22;13201;51.148;13.738;2023-05-21T00:42:15;13.60;99.90
25250;DHT22;13201;51.148;13.738;2023-05-21T00:44:45;13.80;99.90
25250;DHT22;13201;51.148;13.738;2023-05-21T00:47:12;13.80;99.90
25250;DHT22;13201;51.148;13.738;2023-05-21T00:49:38;13.80;99.90
25250;DHT22;13201;51.148;13.738;2023-05-21T00:52:04;14.00;99.90
25250;DHT22;13201;51.148;13.738;2023-05-21T00:54:31;13.90;99.90
25250;DHT22;13201;51.148;13.738;2023-05-21T00:56:57;13.90;99.90
25250;DHT22;13201;51.148;13.738;2023-05-21T00:59:23;13.80;99.90
25250;DHT22;13201;51.148;13.738;2023-05-21T01:01:51;13.70;99.90
25250;DHT22;13201;51.148;13.738;2023-05-21T01:04:24;13.70;99.90
25250;DHT22;13201;51.148;13.738;2023-05-21T01:30:17;12.50;99.90
25250;DHT22;13201;51.148;13.738;2023-05-21T01:35:35;12.30;99.90
25250;DHT22;13201;51.148;13.738;2023-05-21T01:38:19;12.40;99.90
25250;DHT22;13201;51.148;13.738;2023-05-21T01:40:59;12.60;99.90
25250;DHT22;13201;51.148;13.738;2023-05-21T01:43:32;12.80;99.90
25250;DHT22;13201;51.148;13.738;2023-05-21T01:45:59;13.00;99.90
25250;DHT22;13201;51.148;13.738;2023-05-21T01:48:29;13.00;99.90
25250;DHT22;13201;51.148;13.738;2023-05-21T01:50:59;13.10;99.90
25250;DHT22;13201;51.148;13.738;2023-05-21T01:53:25;13.30;99.90
25250;DHT22;13201;51.148;13.738;2023-05-21T01:55:50;13.30;99.90
25250;DHT22;13201;51.148;13.738;2023-05-21T01:58:16;13.20;99.90
25250;DHT22;13201;51.148;13.738;2023-05-21T02:00:43;13.30;99.90
25250;DHT22;13201;51.148;13.738;2023-05-21T02:03:10;13.40;99.90
25250;DHT22;13201;51.148;13.738;2023-05-21T02:05:35;13.40;99.90
25250;DHT22;13201;51.148;13.738;2023-05-21T02:08:01;13.30;99.90
25250;DHT22;13201;51.148;13.738;2023-05-21T02:10:27;13.40;99.90
25250;DHT22;13201;51.148;13.738;2023-05-21T02:12:53;13.40;99.90
25250;DHT22;13201;51.148;13.738;2023-05-21T02:15:18;13.40;99.90
25250;DHT22;13201;51.148;13.738;2023-05-21T02:17:45;13.40;99.90
25250;DHT22;13201;51.148;13.738;2023-05-21T02:20:11;13.40;99.90
25250;DHT22;13201;51.148;13.738;2023-05-21T02:22:43;13.40;99.90
25250;DHT22;13201;51.148;13.738;2023-05-21T02:25:10;13.40;99.90
25250;DHT22;13201;51.148;13.738;2023-05-21T02:27:36;13.40;99.90
25250;DHT22;13201;51.148;13.738;2023-05-21T02:30:13;13.20;99.90
25250;DHT22;13201;51.148;13.738;2023-05-21T02:32:39;13.30;99.90
25250;DHT22;13201;51.148;13.738;2023-05-21T02:35:10;13.30;99.90
25250;DHT22;13201;51.148;13.738;2023-05-21T02:37:37;13.30;99.90
25250;DHT22;13201;51.148;13.738;2023-05-21T02:40:05;13.30;99.90
25250;DHT22;13201;51.148;13.738;2023-05-21T02:42:31;13.20;99.90
25250;DHT22;13201;51.148;13.738;2023-05-21T02:44:57;13.30;99.90
25250;DHT22;13201;51.148;13.738;2023-05-21T02:47:23;13.20;99.90
25250;DHT22;13201;51.148;13.738;2023-05-21T02:49:50;13.30;99.90
25250;DHT22;13201;51.148;13.738;2023-05-21T02:52:17;13.30;99.90
25250;DHT22;13201;51.148;13.738;2023-05-21T02:54:43;13.20;99.90
25250;DHT22;13201;51.148;13.738;2023-05-21T02:57:09;13.10;99.90
25250;DHT22;13201;51.148;13.738;2023-05-21T02:59:35;13.10;99.90
25250;DHT22;13201;51.148;13.738;2023-05-21T03:02:00;12.90;99.90
25250;DHT22;13201;51.148;13.738;2023-05-21T03:04:26;12.80;99.90
25250;DHT22;13201;51.148;13.738;2023-05-21T03:06:53;12.80;99.90
25250;DHT22;13201;51.148;13.738;2023-05-21T03:09:22;12.90;99.90
25250;DHT22;13201;51.148;13.738;2023-05-21T03:11:48;12.90;99.90
25250;DHT22;13201;51.148;13.738;2023-05-21T03:14:14;12.90;99.90
25250;DHT22;13201;51.148;13.738;2023-05-21T03:16:41;12.80;99.90
25250;DHT22;13201;51.148;13.738;2023-05-21T03:19:08;12.80;99.90
25250;DHT22;13201;51.148;13.738;2023-05-21T03:21:34;12.90;99.90
25250;DHT22;13201;51.148;13.738;2023-05-21T03:24:01;13.10;99.90
25250;DHT22;13201;51.148;13.738;2023-05-21T03:26:27;13.10;99.90
25250;DHT22;13201;51.148;13.738;2023-05-21T03:28:54;13.10;99.90
25250;DHT22;13201;51.148;13.738;2023-05-21T03:31:20;13.10;99.90
25250;DHT22;13201;51.148;13.738;2023-05-21T03:33:46;13.20;99.90
25250;DHT22;13201;51.148;13.738;2023-05-21T03:36:12;13.30;99.90
25250;DHT22;13201;51.148;13.738;2023-05-21T03:38:37;13.40;99.90
25250;DHT22;13201;51.148;13.738;2023-05-21T03:41:03;13.30;99.90
25250;DHT22;13201;51.148;13.738;2023-05-21T03:43:29;13.50;99.90
25250;DHT22;13201;51.148;13.738;2023-05-21T03:45:55;13.50;99.90
25250;DHT22;13201;51.148;13.738;2023-05-21T03:48:20;13.60;99.90
25250;DHT22;13201;51.148;13.738;2023-05-21T03:50:46;13.80;99.90
25250;DHT22;13201;51.148;13.738;2023-05-21T03:53:12;13.80;99.90
25250;DHT22;13201;51.148;13.738;2023-05-21T03:55:38;13.70;99.90
25250;DHT22;13201;51.148;13.738;2023-05-21T03:58:04;13.70;99.90
25250;DHT22;13201;51.148;13.738;2023-05-21T04:00:29;13.70;99.90
25250;DHT22;13201;51.148;13.738;2023-05-21T04:02:57;13.80;99.90
25250;DHT22;13201;51.148;13.738;2023-05-21T04:05:23;13.80;99.90
25250;DHT22;13201;51.148;13.738;2023-05-21T04:07:48;13.80;99.90
25250;DHT22;13201;51.148;13.738;2023-05-21T04:10:14;13.90;99.90
25250;DHT22;13201;51.148;13.738;2023-05-21T04:12:40;13.90;99.90
25250;DHT22;13201;51.148;13.738;2023-05-21T04:15:06;13.90;99.90
25250;DHT22;13201;51.148;13.738;2023-05-21T04:17:32;13.90;99.90
25250;DHT22;13201;51.148;13.738;2023-05-21T04:19:59;14.00;99.90
25250;DHT22;13201;51.148;13.738;2023-05-21T04:22:25;13.90;99.90
25250;DHT22;13201;51.148;13.738;2023-05-21T04:24:54;14.10;99.90
25250;DHT22;13201;51.148;13.738;2023-05-21T04:27:23;14.20;99.90
25250;DHT22;13201;51.148;13.738;2023-05-21T04:29:49;14.30;99.90
25250;DHT22;13201;51.148;13.738;2023-05-21T04:32:15;14.40;99.90
25250;DHT22;13201;51.148;13.738;2023-05-21T04:34:42;14.40;99.90
25250;DHT22;13201;51.148;13.738;2023-05-21T04:37:08;14.50;99.90
25250;DHT22;13201;51.148;13.738;2023-05-21T04:39:34;14.60;99.90
25250;DHT22;13201;51.148;13.738;2023-05-21T04:42:01;14.60;99.90
25250;DHT22;13201;51.148;13.738;2023-05-21T04:44:28;14.80;99.90
25250;DHT22;13201;51.148;13.738;2023-05-21T04:46:54;14.80;99.90
25250;DHT22;13201;51.148;13.738;2023-05-21T04:49:19;15.00;99.90
25250;DHT22;13201;51.148;13.738;2023-05-21T04:51:46;15.10;99.90
25250;DHT22;13201;51.148;13.738;2023-05-21T04:54:11;15.10;99.90
25250;DHT22;13201;51.148;13.738;2023-05-21T04:56:37;15.20;99.90
25250;DHT22;13201;51.148;13.738;2023-05-21T04:59:03;15.40;99.90
25250;DHT22;13201;51.148;13.738;2023-05-21T05:01:29;15.30;99.90
25250;DHT22;13201;51.148;13.738;2023-05-21T05:03:56;15.50;99.90
25250;DHT22;13201;51.148;13.738;2023-05-21T05:06:22;15.60;99.90
25250;DHT22;13201;51.148;13.738;2023-05-21T05:08:50;15.80;99.90
25250;DHT22;13201;51.148;13.738;2023-05-21T05:11:16;16.00;99.90
25250;DHT22;13201;51.148;13.738;2023-05-21T05:13:42;16.10;99.90
25250;DHT22;13201;51.148;13.738;2023-05-21T05:16:07;16.30;99.90
25250;DHT22;13201;51.148;13.738;2023-05-21T05:18:34;16.50;99.90
25250;DHT22;13201;51.148;13.738;2023-05-21T05:21:00;16.70;99.90
25250;DHT22;13201;51.148;13.738;2023-05-21T05:23:26;16.90;99.90
25250;DHT22;13201;51.148;13.738;2023-05-21T05:25:51;17.10;99.90
25250;DHT22;13201;51.148;13.738;2023-05-21T05:28:17;17.40;99.90
25250;DHT22;13201;51.148;13.738;2023-05-21T05:30:43;17.50;99.90
25250;DHT22;13201;51.148;13.738;2023-05-21T05:33:08;17.60;99.90
25250;DHT22;13201;51.148;13.738;2023-05-21T05:35:34;17.80;99.90
25250;DHT22;13201;51.148;13.738;2023-05-21T05:38:00;18.00;99.90
25250;DHT22;13201;51.148;13.738;2023-05-21T05:40:26;18.30;99.90
25250;DHT22;13201;51.148;13.738;2023-05-21T05:42:51;18.30;99.90
25250;DHT22;13201;51.148;13.738;2023-05-21T05:45:18;18.40;99.90
25250;DHT22;13201;51.148;13.738;2023-05-21T05:47:44;18.50;99.90
25250;DHT22;13201;51.148;13.738;2023-05-21T05:50:10;18.50;99.90
25250;DHT22;13201;51.148;13.738;2023-05-21T05:52:36;18.70;99.90
25250;DHT22;13201;51.148;13.738;2023-05-21T05:55:02;18.90;99.90
25250;DHT22;13201;51.148;13.738;2023-05-21T05:57:28;19.10;99.90
25250;DHT22;13201;51.148;13.738;2023-05-21T05:59:53;19.10;99.90
25250;DHT22;13201;51.148;13.738;2023-05-21T06:02:19;19.20;99.90
25250;DHT22;13201;51.148;13.738;2023-05-21T06:04:45;19.30;99.90
25250;DHT22;13201;51.148;13.738;2023-05-21T06:07:10;19.40;99.90
25250;DHT22;13201;51.148;13.738;2023-05-21T06:09:36;19.50;99.90
25250;DHT22;13201;51.148;13.738;2023-05-21T06:12:06;19.50;99.90
25250;DHT22;13201;51.148;13.738;2023-05-21T06:14:32;19.70;99.90
25250;DHT22;13201;51.148;13.738;2023-05-21T06:16:58;19.70;99.90
25250;DHT22;13201;51.148;13.738;2023-05-21T06:19:23;20.00;99.90
25250;DHT22;13201;51.148;13.738;2023-05-21T06:21:49;20.20;99.90
25250;DHT22;13201;51.148;13.738;2023-05-21T06:24:15;20.30;99.90
25250;DHT22;13201;51.148;13.738;2023-05-21T06:26:40;20.40;99.90
25250;DHT22;13201;51.148;13.738;2023-05-21T06:29:06;20.60;99.90
25250;DHT22;13201;51.148;13.738;2023-05-21T06:31:32;20.70;99.90
25250;DHT22;13201;51.148;13.738;2023-05-21T06:33:59;20.70;99.90
25250;DHT22;13201;51.148;13.738;2023-05-21T06:36:25;20.80;99.90
25250;DHT22;13201;51.148;13.738;2023-05-21T06:38:55;20.90;99.90
25250;DHT22;13201;51.148;13.738;2023-05-21T06:41:21;21.00;99.90
25250;DHT22;13201;51.148;13.738;2023-05-21T06:43:47;21.00;99.90
25250;DHT22;13201;51.148;13.738;2023-05-21T06:46:13;21.10;99.90
25250;DHT22;13201;51.148;13.738;2023-05-21T06:48:38;21.20;99.90
25250;DHT22;13201;51.148;13.738;2023-05-21T06:51:04;21.30;99.90
25250;DHT22;13201;51.148;13.738;2023-05-21T06:53:30;21.30;99.90
25250;DHT22;13201;51.148;13.738;2023-05-21T06:55:56;21.40;99.90
25250;DHT22;13201;51.148;13.738;2023-05-21T06:58:22;21.50;99.90
25250;DHT22;13201;51.148;13.738;2023-05-21T07:00:47;21.50;99.90
25250;DHT22;13201;51.148;13.738;2023-05-21T07:03:13;21.70;99.90
25250;DHT22;13201;51.148;13.738;2023-05-21T07:05:39;21.80;99.90
25250;DHT22;13201;51.148;13.738;2023-05-21T07:08:05;21.90;99.90
25250;DHT22;13201;51.148;13.738;2023-05-21T07:10:31;21.90;99.90
25250;DHT22;13201;51.148;13.738;2023-05-21T07:12:56;21.90;99.90
25250;DHT22;13201;51.148;13.738;2023-05-21T07:15:22;21.80;99.90
25250;DHT22;13201;51.148;13.738;2023-05-21T07:17:48;22.00;99.90
25250;DHT22;13201;51.148;13.738;2023-05-21T07:20:13;22.10;99.90
25250;DHT22;13201;51.148;13.738;2023-05-21T07:22:40;22.00;99.90
25250;DHT22;13201;51.148;13.738;2023-05-21T07:25:07;22.10;99.90
25250;DHT22;13201;51.148;13.738;2023-05-21T07:27:33;21.80;99.90
25250;DHT22;13201;51.148;13.738;2023-05-21T07:29:59;21.80;99.90
25250;DHT22;13201;51.148;13.738;2023-05-21T07:32:24;22.00;99.90
25250;DHT22;13201;51.148;13.738;2023-05-21T07:34:53;22.00;99.90
25250;DHT22;13201;51.148;13.738;2023-05-21T07:37:19;22.00;99.90
25250;DHT22;13201;51.148;13.738;2023-05-21T07:39:45;22.00;99.90
25250;DHT22;13201;51.148;13.738;2023-05-21T07:42:11;22.10;99.90
25250;DHT22;13201;51.148;13.738;2023-05-21T07:44:36;22.10;99.90
25250;DHT22;13201;51.148;13.738;2023-05-21T07:47:02;22.20;99.90
25250;DHT22;13201;51.148;13.738;2023-05-21T07:49:28;22.30;99.90
25250;DHT22;13201;51.148;13.738;2023-05-21T07:51:54;22.30;99.90
25250;DHT22;13201;51.148;13.738;2023-05-21T07:54:20;22.30;99.90
25250;DHT22;13201;51.148;13.738;2023-05-21T07:56:45;22.30;99.90
25250;DHT22;13201;51.148;13.738;2023-05-21T07:59:13;22.40;99.90
25250;DHT22;13201;51.148;13.738;2023-05-21T08:01:39;22.50;99.90
25250;DHT22;13201;51.148;13.738;2023-05-21T08:04:05;22.50;99.90
25250;DHT22;13201;51.148;13.738;2023-05-21T08:06:31;22.50;99.90
25250;DHT22;13201;51.148;13.738;2023-05-21T08:09:02;22.60;99.90
25250;DHT22;13201;51.148;13.738;2023-05-21T08:11:28;22.70;99.90
25250;DHT22;13201;51.148;13.738;2023-05-21T08:13:54;22.70;99.90
25250;DHT22;13201;51.148;13.738;2023-05-21T08:16:19;22.80;99.90
25250;DHT22;13201;51.148;13.738;2023-05-21T08:18:48;22.90;99.90
25250;DHT22;13201;51.148;13.738;2023-05-21T08:21:13;22.90;99.90
25250;DHT22;13201;51.148;13.738;2023-05-21T08:23:39;23.00;99.90
25250;DHT22;13201;51.148;13.738;2023-05-21T08:26:05;23.00;99.90
25250;DHT22;13201;51.148;13.738;2023-05-21T08:28:31;23.10;99.90
25250;DHT22;13201;51.148;13.738;2023-05-21T08:30:57;23.10;99.90
25250;DHT22;13201;51.148;13.738;2023-05-21T08:33:22;23.10;99.90
25250;DHT22;13201;51.148;13.738;2023-05-21T08:35:48;23.20;99.90
25250;DHT22;13201;51.148;13.738;2023-05-21T08:38:14;23.30;99.90
25250;DHT22;13201;51.148;13.738;2023-05-21T08:40:41;23.40;99.90
25250;DHT22;13201;51.148;13.738;2023-05-21T08:43:07;23.40;99.90
25250;DHT22;13201;51.148;13.738;2023-05-21T08:45:41;23.40;99.90
25250;DHT22;13201;51.148;13.738;2023-05-21T08:48:09;23.50;99.90
25250;DHT22;13201;51.148;13.738;2023-05-21T08:50:36;23.60;99.90
25250;DHT22;13201;51.148;13.738;2023-05-21T08:53:02;23.60;99.90
25250;DHT22;13201;51.148;13.738;2023-05-21T08:55:28;23.70;99.90
25250;DHT22;13201;51.148;13.738;2023-05-21T08:57:55;23.80;99.90
25250;DHT22;13201;51.148;13.738;2023-05-21T09:00:21;23.90;99.90
25250;DHT22;13201;51.148;13.738;2023-05-21T09:02:47;24.10;99.90
25250;DHT22;13201;51.148;13.738;2023-05-21T09:05:14;24.10;99.90
25250;DHT22;13201;51.148;13.738;2023-05-21T09:07:54;24.30;99.90
25250;DHT22;13201;51.148;13.738;2023-05-21T09:10:26;24.40;99.90
25250;DHT22;13201;51.148;13.738;2023-05-21T09:12:53;24.60;99.90
25250;DHT22;13201;51.148;13.738;2023-05-21T09:15:20;24.60;99.90
25250;DHT22;13201;51.148;13.738;2023-05-21T09:17:46;24.60;99.90
25250;DHT22;13201;51.148;13.738;2023-05-21T09:20:13;24.70;99.90
25250;DHT22;13201;51.148;13.738;2023-05-21T09:22:44;24.80;99.90
25250;DHT22;13201;51.148;13.738;2023-05-21T09:25:12;24.90;99.90
25250;DHT22;13201;51.148;13.738;2023-05-21T09:27:38;24.90;99.90
25250;DHT22;13201;51.148;13.738;2023-05-21T09:30:12;24.90;99.90
25250;DHT22;13201;51.148;13.738;2023-05-21T09:32:38;25.20;99.90
25250;DHT22;13201;51.148;13.738;2023-05-21T09:35:14;25.10;99.90
25250;DHT22;13201;51.148;13.738;2023-05-21T09:37:47;25.30;99.90
25250;DHT22;13201;51.148;13.738;2023-05-21T09:40:16;25.30;99.90
25250;DHT22;13201;51.148;13.738;2023-05-21T09:42:52;25.40;99.90
25250;DHT22;13201;51.148;13.738;2023-05-21T09:47:49;25.50;99.90
25250;DHT22;13201;51.148;13.738;2023-05-21T09:50:19;25.80;99.90
25250;DHT22;13201;51.148;13.738;2023-05-21T09:52:46;25.70;99.90
25250;DHT22;13201;51.148;13.738;2023-05-21T09:55:13;25.70;99.90
25250;DHT22;13201;51.148;13.738;2023-05-21T09:57:40;25.80;99.90
25250;DHT22;13201;51.148;13.738;2023-05-21T10:02:36;26.10;99.90
25250;DHT22;13201;51.148;13.738;2023-05-21T10:05:07;25.90;99.90
25250;DHT22;13201;51.148;13.738;2023-05-21T10:07:34;25.80;99.90
25250;DHT22;13201;51.148;13.738;2023-05-21T10:10:02;25.90;99.90
25250;DHT22;13201;51.148;13.738;2023-05-21T10:12:29;25.90;99.90
25250;DHT22;13201;51.148;13.738;2023-05-21T10:15:02;25.90;99.90
25250;DHT22;13201;51.148;13.738;2023-05-21T10:17:28;25.90;99.90
25250;DHT22;13201;51.148;13.738;2023-05-21T10:19:59;25.90;99.90
25250;DHT22;13201;51.148;13.738;2023-05-21T10:22:29;25.90;99.90
25250;DHT22;13201;51.148;13.738;2023-05-21T10:24:56;25.80;99.90
25250;DHT22;13201;51.148;13.738;2023-05-21T10:27:23;25.80;99.90
25250;DHT22;13201;51.148;13.738;2023-05-21T10:29:49;25.70;99.90
25250;DHT22;13201;51.148;13.738;2023-05-21T10:32:16;25.70;99.90
25250;DHT22;13201;51.148;13.738;2023-05-21T10:34:42;25.70;99.90
25250;DHT22;13201;51.148;13.738;2023-05-21T10:37:08;25.60;99.90
25250;DHT22;13201;51.148;13.738;2023-05-21T10:39:35;25.20;99.90
25250;DHT22;13201;51.148;13.738;2023-05-21T10:45:15;25.50;99.90
25250;DHT22;13201;51.148;13.738;2023-05-21T10:53:48;25.20;99.90
25250;DHT22;13201;51.148;13.738;2023-05-21T10:56:36;25.30;99.90
25250;DHT22;13201;51.148;13.738;2023-05-21T11:01:56;25.50;99.90
25250;DHT22;13201;51.148;13.738;2023-05-21T11:04:25;25.50;99.90
25250;DHT22;13201;51.148;13.738;2023-05-21T11:06:51;25.70;99.90
25250;DHT22;13201;51.148;13.738;2023-05-21T11:09:17;25.90;99.90
25250;DHT22;13201;51.148;13.738;2023-05-21T11:11:50;26.20;99.90
25250;DHT22;13201;51.148;13.738;2023-05-21T11:16:51;26.50;99.90
25250;DHT22;13201;51.148;13.738;2023-05-21T11:19:17;26.50;99.90
25250;DHT22;13201;51.148;13.738;2023-05-21T11:21:49;26.50;99.90
25250;DHT22;13201;51.148;13.738;2023-05-21T11:24:18;27.30;99.90
25250;DHT22;13201;51.148;13.738;2023-05-21T11:29:13;27.40;99.90
25250;DHT22;13201;51.148;13.738;2023-05-21T11:31:45;27.60;99.90
25250;DHT22;13201;51.148;13.738;2023-05-21T11:34:20;27.90;99.90
25250;DHT22;13201;51.148;13.738;2023-05-21T11:39:51;28.50;99.90
25250;DHT22;13201;51.148;13.738;2023-05-21T11:44:58;28.20;99.90
25250;DHT22;13201;51.148;13.738;2023-05-21T11:47:26;27.90;99.90
25250;DHT22;13201;51.148;13.738;2023-05-21T11:49:52;28.00;99.90
25250;DHT22;13201;51.148;13.738;2023-05-21T11:52:18;27.70;99.90
25250;DHT22;13201;51.148;13.738;2023-05-21T11:54:49;28.20;99.90
25250;DHT22;13201;51.148;13.738;2023-05-21T11:57:16;28.40;99.90
25250;DHT22;13201;51.148;13.738;2023-05-21T11:59:46;28.70;99.90
25250;DHT22;13201;51.148;13.738;2023-05-21T12:02:15;28.80;99.90
25250;DHT22;13201;51.148;13.738;2023-05-21T12:04:41;28.80;99.90
25250;DHT22;13201;51.148;13.738;2023-05-21T12:07:09;28.70;99.90
25250;DHT22;13201;51.148;13.738;2023-05-21T12:09:45;28.60;99.90
25250;DHT22;13201;51.148;13.738;2023-05-21T12:12:17;29.00;99.20
25250;DHT22;13201;51.148;13.738;2023-05-21T12:14:47;28.90;98.40
25250;DHT22;13201;51.148;13.738;2023-05-21T12:17:21;29.20;99.60
25250;DHT22;13201;51.148;13.738;2023-05-21T12:19:49;29.50;98.50
25250;DHT22;13201;51.148;13.738;2023-05-21T12:22:15;29.60;99.20
25250;DHT22;13201;51.148;13.738;2023-05-21T12:24:41;28.90;98.30
25250;DHT22;13201;51.148;13.738;2023-05-21T12:27:08;28.70;98.50
25250;DHT22;13201;51.148;13.738;2023-05-21T12:29:41;29.10;99.90
25250;DHT22;13201;51.148;13.738;2023-05-21T12:32:09;28.70;99.60
25250;DHT22;13201;51.148;13.738;2023-05-21T12:34:41;29.00;99.80
25250;DHT22;13201;51.148;13.738;2023-05-21T12:37:21;28.60;99.10
25250;DHT22;13201;51.148;13.738;2023-05-21T12:39:49;28.70;99.70
25250;DHT22;13201;51.148;13.738;2023-05-21T12:42:15;28.50;98.60
25250;DHT22;13201;51.148;13.738;2023-05-21T12:44:45;28.20;98.10
25250;DHT22;13201;51.148;13.738;2023-05-21T12:47:12;27.80;97.80
25250;DHT22;13201;51.148;13.738;2023-05-21T12:49:39;28.00;98.70
25250;DHT22;13201;51.148;13.738;2023-05-21T12:52:11;28.60;99.20
25250;DHT22;13201;51.148;13.738;2023-05-21T12:54:38;29.10;98.10
25250;DHT22;13201;51.148;13.738;2023-05-21T12:57:15;29.40;98.00
25250;DHT22;13201;51.148;13.738;2023-05-21T13:04:45;29.60;97.40
25250;DHT22;13201;51.148;13.738;2023-05-21T13:07:12;29.60;97.40
25250;DHT22;13201;51.148;13.738;2023-05-21T13:09:38;29.90;97.60
25250;DHT22;13201;51.148;13.738;2023-05-21T13:12:04;30.20;97.50
25250;DHT22;13201;51.148;13.738;2023-05-21T13:14:29;30.30;97.80
25250;DHT22;13201;51.148;13.738;2023-05-21T13:16:56;30.20;97.40
25250;DHT22;13201;51.148;13.738;2023-05-21T13:19:22;30.70;96.80
25250;DHT22;13201;51.148;13.738;2023-05-21T13:21:47;30.20;96.80
25250;DHT22;13201;51.148;13.738;2023-05-21T13:24:13;29.90;97.00
25250;DHT22;13201;51.148;13.738;2023-05-21T13:26:39;30.50;97.20
25250;DHT22;13201;51.148;13.738;2023-05-21T13:29:04;29.90;96.60
25250;DHT22;13201;51.148;13.738;2023-05-21T13:31:30;29.40;97.40
25250;DHT22;13201;51.148;13.738;2023-05-21T13:33:56;29.30;97.40
25250;DHT22;13201;51.148;13.738;2023-05-21T13:36:21;29.40;97.80
25250;DHT22;13201;51.148;13.738;2023-05-21T13:38:47;29.70;97.80
25250;DHT22;13201;51.148;13.738;2023-05-21T13:41:13;29.90;98.10
25250;DHT22;13201;51.148;13.738;2023-05-21T13:43:41;29.40;98.30
25250;DHT22;13201;51.148;13.738;2023-05-21T13:46:07;29.30;98.20
25250;DHT22;13201;51.148;13.738;2023-05-21T13:48:33;28.90;99.10
25250;DHT22;13201;51.148;13.738;2023-05-21T13:50:58;28.30;98.10
25250;DHT22;13201;51.148;13.738;2023-05-21T13:53:24;28.10;96.70
25250;DHT22;13201;51.148;13.738;2023-05-21T13:55:50;28.30;95.70
25250;DHT22;13201;51.148;13.738;2023-05-21T13:58:16;28.70;95.40
25250;DHT22;13201;51.148;13.738;2023-05-21T14:00:41;28.60;94.00
25250;DHT22;13201;51.148;13.738;2023-05-21T14:03:07;28.20;94.50
25250;DHT22;13201;51.148;13.738;2023-05-21T14:05:35;28.10;94.80
25250;DHT22;13201;51.148;13.738;2023-05-21T14:08:01;27.90;94.50
25250;DHT22;13201;51.148;13.738;2023-05-21T14:10:26;28.50;94.90
25250;DHT22;13201;51.148;13.738;2023-05-21T14:12:52;28.60;94.80
25250;DHT22;13201;51.148;13.738;2023-05-21T14:15:18;28.10;95.30
25250;DHT22;13201;51.148;13.738;2023-05-21T14:17:44;28.10;95.90
25250;DHT22;13201;51.148;13.738;2023-05-21T14:20:10;28.50;95.50
25250;DHT22;13201;51.148;13.738;2023-05-21T14:22:36;29.30;95.00
25250;DHT22;13201;51.148;13.738;2023-05-21T14:25:02;29.70;94.30
25250;DHT22;13201;51.148;13.738;2023-05-21T14:27:27;29.60;93.30
25250;DHT22;13201;51.148;13.738;2023-05-21T14:29:53;29.20;93.60
25250;DHT22;13201;51.148;13.738;2023-05-21T14:32:19;29.80;93.20
25250;DHT22;13201;51.148;13.738;2023-05-21T14:34:44;29.90;93.00
25250;DHT22;13201;51.148;13.738;2023-05-21T14:37:10;29.60;92.50
25250;DHT22;13201;51.148;13.738;2023-05-21T14:39:35;29.50;93.00
25250;DHT22;13201;51.148;13.738;2023-05-21T14:42:04;29.80;93.50
25250;DHT22;13201;51.148;13.738;2023-05-21T14:44:30;29.40;94.30
25250;DHT22;13201;51.148;13.738;2023-05-21T14:46:56;29.40;95.00
25250;DHT22;13201;51.148;13.738;2023-05-21T14:49:22;29.40;95.70
25250;DHT22;13201;51.148;13.738;2023-05-21T14:51:47;29.20;95.80
25250;DHT22;13201;51.148;13.738;2023-05-21T14:54:13;29.20;96.00
25250;DHT22;13201;51.148;13.738;2023-05-21T14:56:39;29.30;96.30
25250;DHT22;13201;51.148;13.738;2023-05-21T14:59:04;29.30;96.00
25250;DHT22;13201;51.148;13.738;2023-05-21T15:01:31;29.80;96.00
25250;DHT22;13201;51.148;13.738;2023-05-21T15:03:56;29.70;95.80
25250;DHT22;13201;51.148;13.738;2023-05-21T15:06:23;29.80;96.40
25250;DHT22;13201;51.148;13.738;2023-05-21T15:08:48;29.70;96.50
25250;DHT22;13201;51.148;13.738;2023-05-21T15:11:14;29.40;96.10
25250;DHT22;13201;51.148;13.738;2023-05-21T15:13:40;29.50;96.00
25250;DHT22;13201;51.148;13.738;2023-05-21T15:16:05;29.50;96.30
25250;DHT22;13201;51.148;13.738;2023-05-21T15:18:31;29.80;96.30
25250;DHT22;13201;51.148;13.738;2023-05-21T15:20:57;29.80;96.50
25250;DHT22;13201;51.148;13.738;2023-05-21T15:23:23;30.10;96.50
25250;DHT22;13201;51.148;13.738;2023-05-21T15:25:49;30.20;96.40
25250;DHT22;13201;51.148;13.738;2023-05-21T15:28:15;29.80;96.90
25250;DHT22;13201;51.148;13.738;2023-05-21T15:30:40;29.60;96.90
25250;DHT22;13201;51.148;13.738;2023-05-21T15:33:06;29.80;97.10
25250;DHT22;13201;51.148;13.738;2023-05-21T15:35:33;29.10;97.10
25250;DHT22;13201;51.148;13.738;2023-05-21T15:37:59;28.80;97.50
25250;DHT22;13201;51.148;13.738;2023-05-21T15:40:24;28.80;97.60
25250;DHT22;13201;51.148;13.738;2023-05-21T15:42:50;28.90;98.20
25250;DHT22;13201;51.148;13.738;2023-05-21T15:45:16;29.10;97.60
25250;DHT22;13201;51.148;13.738;2023-05-21T15:47:41;28.70;97.80
25250;DHT22;13201;51.148;13.738;2023-05-21T15:50:08;28.80;98.20
25250;DHT22;13201;51.148;13.738;2023-05-21T15:52:34;28.80;98.20
25250;DHT22;13201;51.148;13.738;2023-05-21T15:55:01;28.40;97.90
25250;DHT22;13201;51.148;13.738;2023-05-21T15:57:26;28.40;97.80
25250;DHT22;13201;51.148;13.738;2023-05-21T15:59:52;29.00;97.50
25250;DHT22;13201;51.148;13.738;2023-05-21T16:02:18;28.90;97.10
25250;DHT22;13201;51.148;13.738;2023-05-21T16:04:44;28.80;96.60
25250;DHT22;13201;51.148;13.738;2023-05-21T16:07:09;28.20;96.80
25250;DHT22;13201;51.148;13.738;2023-05-21T16:09:35;28.80;97.00
25250;DHT22;13201;51.148;13.738;2023-05-21T16:12:02;29.40;96.50